Time;durP1;ratioP1;P1;durP2;ratioP2;P2;SDS_P1;SDS_P2;PMS_P1;PMS_P2;Temp;Humidity;BMP_temperature;BMP_pressure;BME280_temperature;BME280_humidity;BME280_pressure;Samples;Min_cycle;Max_cycle;Signal;HPM_P1;HPM_P2
2021/08/09 00:00:51;;;;;;;20.33;4.63;;;;;;;;;;5114501;27;20038;-71
2021/08/09 00:03:17;;;;;;;28.52;5.72;;;;;;;;;;5110217;28;20027;-71
2021/08/09 00:05:46;;;;;;;26.73;5.13;;;;;;;;;;5107287;27;20063;-72
2021/08/09 00:08:12;;;;;;;27.35;5.28;;;;;;;;;;5110764;27;20079;-72
2021/08/09 00:10:38;;;;;;;26.77;4.32;;;;;;;;;;5108033;27;20023;-72
2021/08/09 00:13:04;;;;;;;24.33;5.32;;;;;;;;;;5111985;28;20031;-72
2021/08/09 00:15:30;;;;;;;20.15;4.40;;;;;;;;;;5111828;27;20023;-71
2021/08/09 00:17:56;;;;;;;30.25;5.35;;;;;;;;;;5111513;28;20518;-72
2021/08/09 00:20:23;;;;;;;28.80;5.00;;;;;;;;;;5117343;27;20035;-72
2021/08/09 00:22:49;;;;;;;28.90;4.90;;;;;;;;;;5107301;27;20039;-71
2021/08/09 00:25:15;;;;;;;19.65;4.93;;;;;;;;;;5105734;27;20027;-71
2021/08/09 00:27:41;;;;;;;21.52;4.85;;;;;;;;;;5110509;28;20447;-71
2021/08/09 00:30:08;;;;;;;23.13;4.40;;;;;;;;;;5112093;28;20028;-70
2021/08/09 00:32:35;;;;;;;20.60;5.03;;;;;;;;;;5112886;28;20103;-71
2021/08/09 00:35:01;;;;;;;20.13;4.38;;;;;;;;;;5111506;28;20023;-71
2021/08/09 00:37:27;;;;;;;19.80;4.57;;;;;;;;;;5111088;28;20027;-72
2021/08/09 00:39:53;;;;;;;14.00;4.70;;;;;;;;;;5112160;27;20095;-72
2021/08/09 00:42:19;;;;;;;22.27;5.65;;;;;;;;;;5109181;28;20023;-72
2021/08/09 00:44:45;;;;;;;20.88;4.75;;;;;;;;;;5111358;28;20035;-72
2021/08/09 00:47:11;;;;;;;28.70;5.65;;;;;;;;;;5106062;28;20069;-71
2021/08/09 00:49:37;;;;;;;24.98;4.30;;;;;;;;;;5109322;28;20077;-72
2021/08/09 00:52:05;;;;;;;24.33;4.57;;;;;;;;;;5111588;28;20031;-72
2021/08/09 00:54:32;;;;;;;24.40;5.38;;;;;;;;;;5112079;28;20401;-70
2021/08/09 00:56:58;;;;;;;23.50;4.60;;;;;;;;;;5108604;28;20030;-70
2021/08/09 00:59:24;;;;;;;22.45;4.35;;;;;;;;;;5111187;28;20027;-70
2021/08/09 01:01:50;;;;;;;21.50;4.20;;;;;;;;;;5111622;28;20023;-71
2021/08/09 01:04:16;;;;;;;24.10;5.00;;;;;;;;;;5109512;28;20028;-69
2021/08/09 01:06:42;;;;;;;26.13;5.25;;;;;;;;;;5110667;28;20580;-70
2021/08/09 01:09:22;;;;;;;24.13;5.18;;;;;;;;;;5111309;28;20039;-71
2021/08/09 01:11:53;;;;;;;23.65;6.63;;;;;;;;;;5110824;28;20023;-71
2021/08/09 01:14:26;;;;;;;25.70;6.07;;;;;;;;;;5111579;28;20020;-71
2021/08/09 01:16:52;;;;;;;30.70;4.93;;;;;;;;;;5108236;28;20019;-71
2021/08/09 01:19:27;;;;;;;18.30;5.00;;;;;;;;;;5111057;28;20032;-70
2021/08/09 01:21:59;;;;;;;31.73;5.60;;;;;;;;;;5109735;28;20040;-70
2021/08/09 01:24:33;;;;;;;28.30;6.15;;;;;;;;;;5109442;27;20104;-72
2021/08/09 01:27:18;;;;;;;19.52;4.65;;;;;;;;;;5110279;27;20054;-70
2021/08/09 01:29:45;;;;;;;17.45;4.47;;;;;;;;;;5109173;27;20031;-70
2021/08/09 01:32:12;;;;;;;25.17;5.50;;;;;;;;;;5107281;28;20031;-71
2021/08/09 01:34:38;;;;;;;22.13;4.30;;;;;;;;;;5111081;28;20047;-72
2021/08/09 01:37:05;;;;;;;25.02;5.05;;;;;;;;;;5109283;28;20098;-72
2021/08/09 01:39:31;;;;;;;27.65;6.20;;;;;;;;;;5110623;28;20064;-71
2021/08/09 01:41:57;;;;;;;22.40;4.95;;;;;;;;;;5110823;28;20027;-71
2021/08/09 01:44:24;;;;;;;21.95;5.45;;;;;;;;;;5111173;28;20065;-71
2021/08/09 01:46:51;;;;;;;25.52;5.80;;;;;;;;;;5108402;27;20517;-70
2021/08/09 01:49:17;;;;;;;33.58;6.10;;;;;;;;;;5108049;28;20026;-72
2021/08/09 01:51:44;;;;;;;26.35;4.93;;;;;;;;;;5109433;28;20031;-68
2021/08/09 01:54:10;;;;;;;24.85;4.68;;;;;;;;;;5110298;28;20050;-72
2021/08/09 01:56:38;;;;;;;18.67;4.60;;;;;;;;;;5109374;28;20509;-70
2021/08/09 01:59:05;;;;;;;25.88;5.45;;;;;;;;;;5105521;28;20490;-71
2021/08/09 02:01:31;;;;;;;26.15;5.50;;;;;;;;;;5108309;28;20027;-71
2021/08/09 02:03:57;;;;;;;29.27;5.95;;;;;;;;;;5108928;28;20498;-71
2021/08/09 02:06:23;;;;;;;24.55;5.03;;;;;;;;;;5106887;28;20074;-71
2021/08/09 02:08:49;;;;;;;23.63;5.43;;;;;;;;;;5109280;28;20036;-71
2021/08/09 02:11:21;;;;;;;16.35;4.63;;;;;;;;;;5110276;28;20028;-71
2021/08/09 02:13:51;;;;;;;21.88;4.13;;;;;;;;;;5109817;28;20028;-72
2021/08/09 02:16:27;;;;;;;21.02;4.93;;;;;;;;;;5109146;28;20031;-71
2021/08/09 02:19:01;;;;;;;19.35;4.00;;;;;;;;;;5108433;28;20028;-72
2021/08/09 02:21:29;;;;;;;23.90;4.40;;;;;;;;;;5109848;28;20028;-70
2021/08/09 02:23:59;;;;;;;17.10;4.30;;;;;;;;;;5107496;28;20039;-70
2021/08/09 02:26:36;;;;;;;21.98;5.05;;;;;;;;;;5108913;28;20025;-71
2021/08/09 02:29:06;;;;;;;16.75;4.05;;;;;;;;;;5105390;28;20402;-71
2021/08/09 02:31:33;;;;;;;21.10;4.78;;;;;;;;;;5108601;28;20024;-72
2021/08/09 02:34:01;;;;;;;21.48;4.53;;;;;;;;;;5109763;28;20085;-72
2021/08/09 02:36:28;;;;;;;20.45;4.30;;;;;;;;;;5108037;28;20023;-72
2021/08/09 02:38:54;;;;;;;16.20;3.58;;;;;;;;;;5109323;28;20505;-72
2021/08/09 02:41:21;;;;;;;18.45;3.83;;;;;;;;;;5109498;28;20073;-72
2021/08/09 02:43:47;;;;;;;17.65;3.88;;;;;;;;;;5107951;28;20040;-72
2021/08/09 02:46:13;;;;;;;13.30;4.45;;;;;;;;;;5107338;28;20053;-72
2021/08/09 02:48:42;;;;;;;21.27;4.22;;;;;;;;;;5110512;28;20023;-72
2021/08/09 02:51:08;;;;;;;20.30;4.13;;;;;;;;;;5106220;28;20023;-71
2021/08/09 02:53:34;;;;;;;19.95;4.55;;;;;;;;;;5108755;28;20042;-72
2021/08/09 02:56:02;;;;;;;17.00;3.60;;;;;;;;;;5104126;28;20081;-71
2021/08/09 02:58:28;;;;;;;16.77;4.07;;;;;;;;;;5109438;28;20071;-72
2021/08/09 03:00:56;;;;;;;15.63;3.88;;;;;;;;;;5115295;27;20031;-71
2021/08/09 03:03:24;;;;;;;24.70;4.82;;;;;;;;;;5110972;28;20043;-71
2021/08/09 03:05:53;;;;;;;17.38;3.70;;;;;;;;;;5109221;28;20596;-72
2021/08/09 03:08:19;;;;;;;23.17;4.93;;;;;;;;;;5112743;28;20077;-71
2021/08/09 03:10:45;;;;;;;23.52;4.55;;;;;;;;;;5108728;28;20032;-72
2021/08/09 03:13:11;;;;;;;27.00;4.88;;;;;;;;;;5109748;28;20024;-71
2021/08/09 03:15:38;;;;;;;16.20;4.35;;;;;;;;;;5108175;28;20068;-71
2021/08/09 03:18:04;;;;;;;19.52;4.25;;;;;;;;;;5108780;28;20502;-72
2021/08/09 03:20:30;;;;;;;15.63;4.25;;;;;;;;;;5112797;28;20031;-71
2021/08/09 03:22:57;;;;;;;23.70;4.90;;;;;;;;;;5109570;28;20035;-71
2021/08/09 03:25:23;;;;;;;20.55;5.25;;;;;;;;;;5106420;28;20016;-71
2021/08/09 03:27:49;;;;;;;19.67;4.82;;;;;;;;;;5109542;28;20028;-71
2021/08/09 03:30:16;;;;;;;20.33;5.28;;;;;;;;;;5108012;28;20449;-71
2021/08/09 03:32:42;;;;;;;16.92;4.57;;;;;;;;;;5110716;28;20081;-71
2021/08/09 03:35:09;;;;;;;16.50;4.90;;;;;;;;;;5110146;27;20038;-72
2021/08/09 03:37:35;;;;;;;17.60;4.25;;;;;;;;;;5110295;28;20203;-71
2021/08/09 03:40:01;;;;;;;16.02;4.13;;;;;;;;;;5106240;27;20046;-71
2021/08/09 03:42:27;;;;;;;22.05;4.07;;;;;;;;;;5115181;27;20035;-72
2021/08/09 03:44:53;;;;;;;21.52;4.57;;;;;;;;;;5113045;27;20445;-71
2021/08/09 03:47:19;;;;;;;22.02;4.75;;;;;;;;;;5111343;28;20125;-71
2021/08/09 03:49:45;;;;;;;28.63;5.78;;;;;;;;;;5109434;28;20057;-72
2021/08/09 03:52:11;;;;;;;18.02;4.60;;;;;;;;;;5113340;28;20080;-71
2021/08/09 03:54:38;;;;;;;14.27;3.80;;;;;;;;;;5112968;28;20039;-71
2021/08/09 03:57:04;;;;;;;11.60;3.55;;;;;;;;;;5111357;28;20016;-71
2021/08/09 03:59:30;;;;;;;20.98;3.97;;;;;;;;;;5111446;28;20024;-71
2021/08/09 04:01:56;;;;;;;17.08;3.65;;;;;;;;;;5111129;28;20092;-71
2021/08/09 04:04:22;;;;;;;17.85;4.20;;;;;;;;;;5112419;28;20031;-71
2021/08/09 04:06:48;;;;;;;13.70;4.30;;;;;;;;;;5111731;28;20054;-72
2021/08/09 04:09:14;;;;;;;19.83;4.25;;;;;;;;;;5110334;28;20115;-71
2021/08/09 04:11:40;;;;;;;16.08;3.97;;;;;;;;;;5112901;28;20027;-71
2021/08/09 04:14:06;;;;;;;22.88;4.05;;;;;;;;;;5112240;28;20020;-71
2021/08/09 04:16:32;;;;;;;18.90;4.47;;;;;;;;;;5111971;28;20609;-72
2021/08/09 04:18:58;;;;;;;20.90;4.95;;;;;;;;;;5111040;28;20176;-71
2021/08/09 04:21:25;;;;;;;21.55;4.38;;;;;;;;;;5109824;28;20027;-71
2021/08/09 04:23:52;;;;;;;16.13;4.00;;;;;;;;;;5112090;28;20027;-71
2021/08/09 04:26:19;;;;;;;13.02;4.57;;;;;;;;;;5110935;28;20522;-72
2021/08/09 04:28:45;;;;;;;17.83;4.35;;;;;;;;;;5112577;28;20028;-71
2021/08/09 04:31:11;;;;;;;16.95;3.70;;;;;;;;;;5112024;28;20121;-72
2021/08/09 04:33:44;;;;;;;17.55;3.97;;;;;;;;;;5111327;28;20031;-72
2021/08/09 04:36:10;;;;;;;18.17;3.47;;;;;;;;;;5109681;28;20020;-71
2021/08/09 04:38:36;;;;;;;17.83;4.22;;;;;;;;;;5112706;28;20027;-71
2021/08/09 04:41:09;;;;;;;18.38;4.10;;;;;;;;;;5111311;28;20106;-71
2021/08/09 04:43:36;;;;;;;16.30;4.35;;;;;;;;;;5112352;28;20575;-71
2021/08/09 04:46:03;;;;;;;19.40;3.72;;;;;;;;;;5111434;28;20028;-72
2021/08/09 04:48:29;;;;;;;15.68;3.10;;;;;;;;;;5110625;28;20026;-72
2021/08/09 04:50:55;;;;;;;19.40;4.57;;;;;;;;;;5111530;27;20031;-71
2021/08/09 04:53:21;;;;;;;15.45;3.75;;;;;;;;;;5111595;27;20024;-71
2021/08/09 04:55:47;;;;;;;15.77;3.75;;;;;;;;;;5108178;28;20031;-72
2021/08/09 04:58:13;;;;;;;15.88;3.42;;;;;;;;;;5114083;27;20019;-71
2021/08/09 05:00:40;;;;;;;15.45;3.60;;;;;;;;;;5109159;28;20027;-71
2021/08/09 05:03:06;;;;;;;13.55;3.00;;;;;;;;;;5110545;27;20501;-72
2021/08/09 05:05:32;;;;;;;12.93;2.88;;;;;;;;;;5109677;28;20088;-72
2021/08/09 05:07:58;;;;;;;17.55;3.22;;;;;;;;;;5111739;28;20491;-71
2021/08/09 05:10:25;;;;;;;20.27;3.92;;;;;;;;;;5112893;27;20023;-72
2021/08/09 05:12:51;;;;;;;16.75;3.65;;;;;;;;;;5111794;28;20031;-71
2021/08/09 05:15:18;;;;;;;19.00;3.55;;;;;;;;;;5107788;27;20020;-71
2021/08/09 05:17:44;;;;;;;12.88;2.88;;;;;;;;;;5108580;28;20106;-71
2021/08/09 05:20:11;;;;;;;14.93;3.40;;;;;;;;;;5110501;27;20042;-72
2021/08/09 05:22:37;;;;;;;14.50;3.53;;;;;;;;;;5110121;28;20039;-72
2021/08/09 05:25:04;;;;;;;11.57;3.45;;;;;;;;;;5110258;28;20106;-72
2021/08/09 05:27:30;;;;;;;11.48;3.28;;;;;;;;;;5109875;28;20483;-72
2021/08/09 05:29:56;;;;;;;13.75;3.53;;;;;;;;;;5109236;28;20092;-72
2021/08/09 05:32:22;;;;;;;12.55;3.20;;;;;;;;;;5111004;28;20069;-71
2021/08/09 05:34:48;;;;;;;12.63;3.03;;;;;;;;;;5111606;27;20016;-71
2021/08/09 05:37:14;;;;;;;10.93;3.17;;;;;;;;;;5109973;28;20036;-71
2021/08/09 05:39:41;;;;;;;12.93;3.35;;;;;;;;;;5109464;28;20043;-71
2021/08/09 05:42:07;;;;;;;22.70;3.50;;;;;;;;;;5110287;27;20490;-71
2021/08/09 05:44:33;;;;;;;17.70;3.83;;;;;;;;;;5110667;28;20020;-71
2021/08/09 05:46:59;;;;;;;14.98;2.75;;;;;;;;;;5106523;28;20027;-72
2021/08/09 05:49:25;;;;;;;14.90;3.53;;;;;;;;;;5109101;28;20115;-71
2021/08/09 05:51:51;;;;;;;9.75;2.42;;;;;;;;;;5109868;27;20019;-72
2021/08/09 05:54:17;;;;;;;12.88;3.22;;;;;;;;;;5110414;28;20509;-71
2021/08/09 05:56:43;;;;;;;13.52;3.65;;;;;;;;;;5108087;27;20489;-71
2021/08/09 05:59:09;;;;;;;12.60;3.72;;;;;;;;;;5113682;27;20047;-70
2021/08/09 06:01:35;;;;;;;11.90;3.00;;;;;;;;;;5106237;27;20020;-71
2021/08/09 06:04:01;;;;;;;13.80;2.95;;;;;;;;;;5103317;27;20502;-70
2021/08/09 06:06:28;;;;;;;14.20;3.60;;;;;;;;;;5101517;27;20104;-71
2021/08/09 06:08:54;;;;;;;18.52;3.60;;;;;;;;;;5100294;27;20439;-70
2021/08/09 06:11:22;;;;;;;12.85;4.03;;;;;;;;;;5102892;27;20017;-70
2021/08/09 06:13:48;;;;;;;12.07;3.60;;;;;;;;;;5110313;27;20088;-71
2021/08/09 06:16:14;;;;;;;16.45;4.55;;;;;;;;;;5111070;27;20030;-72
2021/08/09 06:18:40;;;;;;;14.88;3.40;;;;;;;;;;5110821;27;20023;-71
2021/08/09 06:21:06;;;;;;;12.40;2.90;;;;;;;;;;5110019;27;20085;-70
2021/08/09 06:23:32;;;;;;;12.43;3.13;;;;;;;;;;5108674;27;20019;-71
2021/08/09 06:25:58;;;;;;;12.50;3.70;;;;;;;;;;5112468;27;20032;-71
2021/08/09 06:28:25;;;;;;;12.57;4.18;;;;;;;;;;5104487;28;20031;-71
2021/08/09 06:30:51;;;;;;;12.63;3.65;;;;;;;;;;5107464;27;20035;-70
2021/08/09 06:33:17;;;;;;;11.13;3.70;;;;;;;;;;5121772;27;20034;-71
2021/08/09 06:35:43;;;;;;;11.85;3.85;;;;;;;;;;5109993;28;20016;-70
2021/08/09 06:38:10;;;;;;;11.18;3.75;;;;;;;;;;5114341;27;20160;-70
2021/08/09 06:40:37;;;;;;;16.27;5.03;;;;;;;;;;5113866;28;20023;-71
2021/08/09 06:43:03;;;;;;;19.42;4.28;;;;;;;;;;5126566;28;20023;-71
2021/08/09 06:45:30;;;;;;;13.93;3.83;;;;;;;;;;5108954;28;20095;-71
2021/08/09 06:47:56;;;;;;;11.57;3.95;;;;;;;;;;5116729;28;20031;-70
2021/08/09 06:50:22;;;;;;;12.48;4.65;;;;;;;;;;5109274;28;20028;-70
2021/08/09 06:52:48;;;;;;;10.82;4.03;;;;;;;;;;5115369;28;20044;-71
2021/08/09 06:55:14;;;;;;;10.55;4.15;;;;;;;;;;5109078;28;20543;-71
2021/08/09 06:57:40;;;;;;;15.82;4.45;;;;;;;;;;5110309;28;20027;-71
2021/08/09 07:00:07;;;;;;;13.73;4.75;;;;;;;;;;5107965;28;20032;-71
2021/08/09 07:02:34;;;;;;;12.65;4.13;;;;;;;;;;5099898;28;20032;-71
2021/08/09 07:05:00;;;;;;;11.82;3.75;;;;;;;;;;5109892;28;20086;-71
2021/08/09 07:07:26;;;;;;;20.77;4.95;;;;;;;;;;5109946;28;20044;-70
2021/08/09 07:09:52;;;;;;;17.48;5.45;;;;;;;;;;5108579;28;20036;-72
2021/08/09 07:12:18;;;;;;;14.57;4.50;;;;;;;;;;5098923;28;20051;-71
2021/08/09 07:14:44;;;;;;;10.80;4.18;;;;;;;;;;5106258;28;20034;-72
2021/08/09 07:17:10;;;;;;;14.75;4.20;;;;;;;;;;5113621;28;20406;-70
2021/08/09 07:19:37;;;;;;;10.70;4.82;;;;;;;;;;5114001;27;20542;-70
2021/08/09 07:22:04;;;;;;;17.42;4.82;;;;;;;;;;5101342;28;20040;-71
2021/08/09 07:24:30;;;;;;;13.18;4.95;;;;;;;;;;5113079;28;20023;-70
2021/08/09 07:26:56;;;;;;;14.57;5.65;;;;;;;;;;5108042;28;20021;-71
2021/08/09 07:29:22;;;;;;;11.80;4.90;;;;;;;;;;5110495;27;20020;-71
2021/08/09 07:31:48;;;;;;;13.80;4.97;;;;;;;;;;5095376;28;20024;-70
2021/08/09 07:34:14;;;;;;;14.48;4.85;;;;;;;;;;5105890;28;20020;-71
2021/08/09 07:36:41;;;;;;;12.23;4.60;;;;;;;;;;5106486;28;20445;-70
2021/08/09 07:39:07;;;;;;;11.77;5.28;;;;;;;;;;5094323;28;20020;-70
2021/08/09 07:41:33;;;;;;;12.32;4.25;;;;;;;;;;5109738;28;20036;-69
2021/08/09 07:43:59;;;;;;;13.75;4.45;;;;;;;;;;5108334;28;20036;-71
2021/08/09 07:46:27;;;;;;;17.13;4.97;;;;;;;;;;5099714;28;20070;-69
2021/08/09 07:48:53;;;;;;;11.85;4.47;;;;;;;;;;5100208;28;20023;-70
2021/08/09 07:51:19;;;;;;;17.40;4.47;;;;;;;;;;5106457;27;20021;-71
2021/08/09 07:53:45;;;;;;;14.30;4.75;;;;;;;;;;5105837;28;20274;-70
2021/08/09 07:56:12;;;;;;;16.45;5.05;;;;;;;;;;5112723;28;20102;-71
2021/08/09 07:58:38;;;;;;;12.23;4.28;;;;;;;;;;5100941;28;20035;-71
2021/08/09 08:01:04;;;;;;;11.70;5.10;;;;;;;;;;5103137;27;20498;-70
2021/08/09 08:03:30;;;;;;;10.82;4.65;;;;;;;;;;5105605;27;20036;-71
2021/08/09 08:05:56;;;;;;;13.93;4.60;;;;;;;;;;5127091;27;20520;-70
2021/08/09 08:08:22;;;;;;;12.77;4.80;;;;;;;;;;5113803;27;20031;-71
2021/08/09 08:10:48;;;;;;;15.65;4.68;;;;;;;;;;5132979;27;20019;-69
2021/08/09 08:13:14;;;;;;;14.32;5.13;;;;;;;;;;5113217;27;20063;-68
2021/08/09 08:15:40;;;;;;;8.75;3.83;;;;;;;;;;5115252;27;20024;-70
2021/08/09 08:18:06;;;;;;;15.20;4.10;;;;;;;;;;5115399;27;20031;-71
2021/08/09 08:20:32;;;;;;;10.57;4.30;;;;;;;;;;5110894;27;20072;-71
2021/08/09 08:23:02;;;;;;;10.48;3.90;;;;;;;;;;5110099;28;20024;-71
2021/08/09 08:25:28;;;;;;;17.25;4.40;;;;;;;;;;5092895;28;20016;-72
2021/08/09 08:27:54;;;;;;;8.63;3.88;;;;;;;;;;5111494;28;21050;-71
2021/08/09 08:30:20;;;;;;;11.63;4.18;;;;;;;;;;5117162;27;20027;-71
2021/08/09 08:32:46;;;;;;;10.05;4.18;;;;;;;;;;5112768;27;20024;-71
2021/08/09 08:35:13;;;;;;;12.05;5.05;;;;;;;;;;5110290;27;20026;-69
2021/08/09 08:37:39;;;;;;;14.60;5.80;;;;;;;;;;5110680;27;20024;-70
2021/08/09 08:40:05;;;;;;;10.00;4.22;;;;;;;;;;5126476;27;20042;-70
2021/08/09 08:42:32;;;;;;;7.50;3.80;;;;;;;;;;5113994;27;20039;-72
2021/08/09 08:44:58;;;;;;;9.98;3.75;;;;;;;;;;5115159;27;20064;-72
2021/08/09 08:47:24;;;;;;;10.93;4.50;;;;;;;;;;5115956;27;20057;-70
2021/08/09 08:49:50;;;;;;;9.05;3.72;;;;;;;;;;5110899;28;20024;-70
2021/08/09 08:52:17;;;;;;;9.25;3.58;;;;;;;;;;5105289;28;20023;-71
2021/08/09 08:54:43;;;;;;;10.02;3.40;;;;;;;;;;5116548;27;20028;-71
2021/08/09 08:57:23;;;;;;;10.80;3.42;;;;;;;;;;5105313;27;20494;-72
2021/08/09 08:59:49;;;;;;;12.77;3.67;;;;;;;;;;5097296;28;20047;-71
2021/08/09 09:02:35;;;;;;;11.45;2.97;;;;;;;;;;5104335;27;20042;-71
2021/08/09 09:05:11;;;;;;;9.13;2.97;;;;;;;;;;5110073;27;20552;-71
2021/08/09 09:07:38;;;;;;;9.43;3.20;;;;;;;;;;5099412;27;20124;-70
2021/08/09 09:10:13;;;;;;;9.23;4.10;;;;;;;;;;5104033;27;20077;-71
2021/08/09 09:12:40;;;;;;;6.68;2.83;;;;;;;;;;5102324;28;20521;-69
2021/08/09 09:15:06;;;;;;;8.55;2.92;;;;;;;;;;5105317;28;20039;-71
2021/08/09 09:17:36;;;;;;;5.40;2.30;;;;;;;;;;5111027;27;20645;-71
2021/08/09 09:20:22;;;;;;;6.53;2.58;;;;;;;;;;5103972;27;20530;-70
2021/08/09 09:22:48;;;;;;;9.85;3.40;;;;;;;;;;5107367;28;20598;-72
2021/08/09 09:25:14;;;;;;;12.02;3.33;;;;;;;;;;5103351;27;20035;-71
2021/08/09 09:27:40;;;;;;;10.77;3.17;;;;;;;;;;5110690;28;20023;-72
2021/08/09 09:30:27;;;;;;;12.30;3.45;;;;;;;;;;5121718;27;20035;-72
2021/08/09 09:33:00;;;;;;;8.20;3.00;;;;;;;;;;5123376;27;20027;-70
2021/08/09 09:35:26;;;;;;;13.90;4.00;;;;;;;;;;5109747;27;20019;-69
2021/08/09 09:37:52;;;;;;;5.90;2.60;;;;;;;;;;5108080;27;20032;-72
2021/08/09 09:40:20;;;;;;;8.32;3.10;;;;;;;;;;5110091;27;20525;-70
2021/08/09 09:42:47;;;;;;;9.13;3.38;;;;;;;;;;5123066;27;20023;-71
2021/08/09 09:45:19;;;;;;;7.35;3.22;;;;;;;;;;5111421;27;20446;-69
2021/08/09 09:47:45;;;;;;;7.13;3.88;;;;;;;;;;5102823;28;20032;-71
2021/08/09 09:50:24;;;;;;;9.15;2.58;;;;;;;;;;5115515;27;20088;-72
2021/08/09 09:52:50;;;;;;;6.47;2.38;;;;;;;;;;5108568;28;20562;-71
2021/08/09 09:55:16;;;;;;;10.60;3.10;;;;;;;;;;5105001;27;20019;-72
2021/08/09 09:57:44;;;;;;;9.88;3.33;;;;;;;;;;5109648;28;20030;-71
2021/08/09 10:00:12;;;;;;;8.65;2.70;;;;;;;;;;5106815;27;20031;-71
2021/08/09 10:02:42;;;;;;;11.40;3.45;;;;;;;;;;5121437;27;20020;-69
2021/08/09 10:05:09;;;;;;;5.68;2.58;;;;;;;;;;5098106;27;20031;-69
2021/08/09 10:07:36;;;;;;;9.77;2.80;;;;;;;;;;5102069;28;20104;-69
2021/08/09 10:10:02;;;;;;;8.55;3.42;;;;;;;;;;5093362;28;20031;-71
2021/08/09 10:12:32;;;;;;;7.25;2.83;;;;;;;;;;5099775;28;20023;-69
2021/08/09 10:14:59;;;;;;;10.15;3.08;;;;;;;;;;5104496;28;20024;-69
2021/08/09 10:17:26;;;;;;;10.43;2.97;;;;;;;;;;5096195;28;20028;-70
2021/08/09 10:19:54;;;;;;;6.85;2.42;;;;;;;;;;5105044;28;20027;-68
2021/08/09 10:22:21;;;;;;;7.20;2.15;;;;;;;;;;5096994;28;20039;-68
2021/08/09 10:24:50;;;;;;;8.32;2.70;;;;;;;;;;5098251;28;20072;-72
2021/08/09 10:27:16;;;;;;;4.85;2.20;;;;;;;;;;5098100;28;20051;-69
2021/08/09 10:30:01;;;;;;;9.63;2.42;;;;;;;;;;5113325;27;20511;-70
2021/08/09 10:32:27;;;;;;;7.63;2.47;;;;;;;;;;5109881;28;20487;-71
2021/08/09 10:34:53;;;;;;;8.00;2.17;;;;;;;;;;5107384;27;20019;-70
2021/08/09 10:37:22;;;;;;;5.05;2.00;;;;;;;;;;5107408;27;20019;-70
2021/08/09 10:39:53;;;;;;;5.57;2.35;;;;;;;;;;5107143;28;20831;-70
2021/08/09 10:42:34;;;;;;;5.72;1.80;;;;;;;;;;5095481;28;20081;-69
2021/08/09 10:45:01;;;;;;;6.95;2.08;;;;;;;;;;5098238;28;20056;-69
2021/08/09 10:47:48;;;;;;;6.35;2.38;;;;;;;;;;5098512;28;20032;-69
2021/08/09 10:50:41;;;;;;;7.85;2.38;;;;;;;;;;5104840;28;20096;-71
2021/08/09 10:53:25;;;;;;;7.90;2.38;;;;;;;;;;5105922;27;20028;-70
2021/08/09 10:55:55;;;;;;;6.53;2.42;;;;;;;;;;5112468;27;20062;-70
2021/08/09 10:58:40;;;;;;;10.52;2.05;;;;;;;;;;5102578;27;20028;-70
2021/08/09 11:01:06;;;;;;;7.20;1.92;;;;;;;;;;5117937;27;20046;-73
2021/08/09 11:03:32;;;;;;;9.60;2.33;;;;;;;;;;5110533;27;20097;-73
2021/08/09 11:05:58;;;;;;;5.50;2.00;;;;;;;;;;5104796;27;20035;-73
2021/08/09 11:08:24;;;;;;;8.75;3.97;;;;;;;;;;5104597;27;20031;-71
2021/08/09 11:10:56;;;;;;;6.07;2.42;;;;;;;;;;5094556;28;20410;-72
2021/08/09 11:13:23;;;;;;;5.93;2.40;;;;;;;;;;5106525;27;20037;-71
2021/08/09 11:15:59;;;;;;;8.38;2.78;;;;;;;;;;5102764;27;20035;-71
2021/08/09 11:18:27;;;;;;;8.57;2.47;;;;;;;;;;5105192;28;20027;-71
2021/08/09 11:21:01;;;;;;;8.43;1.80;;;;;;;;;;5107178;27;20073;-74
2021/08/09 11:23:28;;;;;;;8.95;2.40;;;;;;;;;;5109437;27;20115;-70
2021/08/09 11:25:54;;;;;;;8.07;3.20;;;;;;;;;;5094508;28;20410;-70
2021/08/09 11:28:24;;;;;;;11.20;2.75;;;;;;;;;;5112654;28;20035;-70
2021/08/09 11:30:51;;;;;;;7.10;2.67;;;;;;;;;;5112331;28;20040;-71
2021/08/09 11:33:28;;;;;;;9.18;3.42;;;;;;;;;;5111568;27;20098;-72
2021/08/09 11:35:55;;;;;;;12.30;3.80;;;;;;;;;;5110108;27;20035;-70
2021/08/09 11:38:21;;;;;;;10.25;2.97;;;;;;;;;;5116932;27;20164;-72
2021/08/09 11:40:49;;;;;;;12.20;3.28;;;;;;;;;;5112264;28;20028;-70
2021/08/09 11:43:16;;;;;;;17.20;3.88;;;;;;;;;;5112264;28;20025;-69
2021/08/09 11:45:42;;;;;;;18.20;4.18;;;;;;;;;;5111930;27;20039;-70
2021/08/09 11:48:09;;;;;;;13.38;3.75;;;;;;;;;;5112382;28;20027;-69
2021/08/09 11:50:37;;;;;;;20.50;4.97;;;;;;;;;;5106561;28;20019;-68
2021/08/09 11:53:03;;;;;;;13.80;3.90;;;;;;;;;;5110611;27;20256;-69
2021/08/09 11:55:29;;;;;;;9.75;3.58;;;;;;;;;;5112731;27;20537;-69
2021/08/09 11:57:55;;;;;;;16.23;4.82;;;;;;;;;;5112990;27;20096;-68
2021/08/09 12:00:24;;;;;;;13.65;3.70;;;;;;;;;;5105747;28;20039;-68
2021/08/09 12:03:10;;;;;;;16.92;3.95;;;;;;;;;;5109143;27;20039;-70
2021/08/09 12:05:37;;;;;;;14.02;3.35;;;;;;;;;;5108071;27;20046;-69
2021/08/09 12:08:05;;;;;;;9.50;3.47;;;;;;;;;;5114046;27;20423;-70
2021/08/09 12:10:31;;;;;;;12.23;3.22;;;;;;;;;;5119388;27;20486;-69
2021/08/09 12:12:57;;;;;;;15.13;4.07;;;;;;;;;;5110087;27;20023;-69
2021/08/09 12:15:24;;;;;;;16.42;3.88;;;;;;;;;;5101404;28;20039;-70
2021/08/09 12:18:02;;;;;;;10.40;3.58;;;;;;;;;;5104849;27;20016;-72
2021/08/09 12:20:28;;;;;;;12.10;3.83;;;;;;;;;;5097896;27;20502;-68
2021/08/09 12:22:54;;;;;;;9.80;4.00;;;;;;;;;;5111538;27;20088;-69
2021/08/09 12:25:24;;;;;;;9.57;3.65;;;;;;;;;;5104904;28;20367;-68
2021/08/09 12:28:00;;;;;;;11.43;3.55;;;;;;;;;;5116433;27;20486;-68
2021/08/09 12:30:26;;;;;;;12.32;3.33;;;;;;;;;;5103951;27;20024;-69
2021/08/09 12:33:03;;;;;;;13.18;3.72;;;;;;;;;;5106779;27;20084;-69
2021/08/09 12:35:33;;;;;;;13.18;3.28;;;;;;;;;;5110694;27;20039;-71
2021/08/09 12:38:00;;;;;;;14.02;3.40;;;;;;;;;;5110245;28;20016;-70
2021/08/09 12:40:26;;;;;;;10.27;3.33;;;;;;;;;;5110278;28;20023;-71
2021/08/09 12:43:03;;;;;;;11.07;3.58;;;;;;;;;;5108491;27;20085;-69
2021/08/09 12:45:29;;;;;;;12.60;3.45;;;;;;;;;;5108811;27;20026;-70
2021/08/09 12:47:55;;;;;;;9.38;3.47;;;;;;;;;;5109133;28;20032;-71
2021/08/09 12:50:21;;;;;;;15.48;3.35;;;;;;;;;;5107900;28;20515;-70
2021/08/09 12:52:47;;;;;;;8.35;2.97;;;;;;;;;;5108085;27;20040;-71
2021/08/09 12:55:13;;;;;;;11.02;3.00;;;;;;;;;;5107161;28;20081;-69
2021/08/09 12:57:39;;;;;;;8.00;3.00;;;;;;;;;;5106651;28;20034;-68
2021/08/09 13:00:06;;;;;;;5.68;2.33;;;;;;;;;;5109463;28;20167;-71
2021/08/09 13:02:33;;;;;;;9.27;2.72;;;;;;;;;;5110295;28;20035;-72
2021/08/09 13:04:59;;;;;;;9.93;2.88;;;;;;;;;;5109430;28;20046;-68
2021/08/09 13:07:25;;;;;;;12.55;2.60;;;;;;;;;;5107154;28;20128;-75
2021/08/09 13:09:51;;;;;;;11.15;2.45;;;;;;;;;;5104015;28;20031;-67
2021/08/09 13:12:17;;;;;;;13.70;3.40;;;;;;;;;;5107978;28;20036;-67
2021/08/09 13:14:43;;;;;;;10.82;3.28;;;;;;;;;;5110003;28;20023;-68
2021/08/09 13:17:09;;;;;;;9.48;3.30;;;;;;;;;;5107780;27;20035;-67
2021/08/09 13:19:36;;;;;;;11.38;3.30;;;;;;;;;;5107958;28;20031;-69
2021/08/09 13:22:02;;;;;;;11.60;3.25;;;;;;;;;;5110480;28;20039;-68
2021/08/09 13:24:28;;;;;;;11.07;3.15;;;;;;;;;;5108387;28;20034;-68
2021/08/09 13:26:54;;;;;;;18.88;3.85;;;;;;;;;;5106583;28;20066;-68
2021/08/09 13:29:22;;;;;;;11.02;3.28;;;;;;;;;;5108326;28;20028;-69
2021/08/09 13:31:48;;;;;;;11.88;3.38;;;;;;;;;;5109608;28;20331;-69
2021/08/09 13:34:14;;;;;;;15.38;3.40;;;;;;;;;;5104128;28;20474;-69
2021/08/09 13:36:40;;;;;;;13.18;3.63;;;;;;;;;;5101275;27;20031;-69
2021/08/09 13:39:06;;;;;;;14.00;4.00;;;;;;;;;;5106402;28;20024;-69
2021/08/09 13:41:32;;;;;;;15.98;3.65;;;;;;;;;;5105439;27;20031;-67
2021/08/09 13:43:58;;;;;;;17.23;3.28;;;;;;;;;;5109902;27;20065;-71
2021/08/09 13:46:24;;;;;;;16.33;3.95;;;;;;;;;;5106334;28;20023;-76
2021/08/09 13:48:50;;;;;;;21.58;4.07;;;;;;;;;;5108247;28;20024;-70
2021/08/09 13:51:17;;;;;;;14.43;4.68;;;;;;;;;;5108014;28;20020;-69
2021/08/09 13:53:43;;;;;;;23.90;4.22;;;;;;;;;;5109408;28;20024;-68
2021/08/09 13:56:10;;;;;;;13.30;3.60;;;;;;;;;;5106204;28;20023;-68
2021/08/09 13:58:40;;;;;;;16.30;4.43;;;;;;;;;;5109334;28;20035;-69
2021/08/09 14:01:07;;;;;;;16.00;3.23;;;;;;;;;;5109742;28;20080;-68
2021/08/09 14:03:35;;;;;;;21.88;3.85;;;;;;;;;;5107836;28;20028;-68
2021/08/09 14:06:02;;;;;;;13.10;3.60;;;;;;;;;;5105692;28;20089;-68
2021/08/09 14:08:28;;;;;;;12.50;3.10;;;;;;;;;;5109056;28;20032;-68
2021/08/09 14:10:55;;;;;;;15.13;3.50;;;;;;;;;;5108362;28;20660;-68
2021/08/09 14:13:22;;;;;;;13.77;3.85;;;;;;;;;;5107578;28;20096;-69
2021/08/09 14:15:49;;;;;;;18.55;3.60;;;;;;;;;;5105915;27;20028;-68
2021/08/09 14:18:15;;;;;;;20.10;4.32;;;;;;;;;;5108018;28;20053;-68
2021/08/09 14:20:41;;;;;;;24.02;4.53;;;;;;;;;;5103003;28;20019;-67
2021/08/09 14:23:07;;;;;;;18.13;3.58;;;;;;;;;;5109323;28;20100;-68
2021/08/09 14:25:34;;;;;;;22.10;3.78;;;;;;;;;;5105839;28;20027;-68
2021/08/09 14:28:01;;;;;;;14.32;4.60;;;;;;;;;;5108592;28;20053;-69
2021/08/09 14:30:28;;;;;;;16.10;3.92;;;;;;;;;;5108806;28;20089;-70
2021/08/09 14:32:54;;;;;;;16.15;3.78;;;;;;;;;;5106168;28;20027;-68
2021/08/09 14:35:20;;;;;;;18.58;4.03;;;;;;;;;;5105255;28;20015;-68